El Aayoune, Western Sahara

2:22 AM WET on August 29, 2014 (GMT +0000)
Hassan I | Change Station
CLOSE
Current Station
Airport
Location: LAAYOUNE/HASSAN,
Elevation: 207 ft
Nearby Weather Stations

Elev 207 ft 27.14 °N, 13.23 °W | Updated 22 minutes ago

Partly Cloudy
Partly Cloudy
73 °F
Feels Like 73 °F
N
13
Wind Variable Wind from NNE

Today
High -- | Low -- °F
--% Chance of Precip.
Yesterday
High -- | Low -- °F
Precip. -- in
6:30 AM 7:16 PM
Waxing Crescent, 11% visible
Pressure 29.98 in
Visibility 5.6 miles
Clouds Few 1000 ft
Dew Point 68 °F
Humidity 83%
Rainfall 0.00 in
Snow Depth Not available.
UV 0 out of 12
Pollen Not available.
Air Quality Not available.
Flu Activity Not available.
METAR GMML 290200Z AUTO 03011KT 9000NDV FEW010 23/20 Q1015

More Conditions Fewer Conditions

Pressure 29.98 in
Visibility 5.6 miles
Clouds Few 1000 ft
Dew Point 68 °F
Humidity 83%
Rainfall 0.00 in
Snow Depth Not available.
UV 0 out of 12
Pollen Not available.
Air Quality Not available.
Flu Activity Not available.
METAR GMML 290200Z AUTO 03011KT 9000NDV FEW010 23/20 Q1015

More Conditions Fewer Conditions

10-Day Weather Forecast

Almanac

Astronomy

Aug. 29, 2014 Rise Set
Actual Time 6:30 AM WET 7:16 PM WET
Civil Twilight 6:06 AM WET 7:40 PM WET
Nautical Twilight 5:38 AM WET 8:08 PM WET
Astronomical Twilight 5:10 AM WET 8:36 PM WET
Moon 9:44 AM WET 9:31 PM WET
Length of Visible Light 13h 33m
Length of Day
12h 45m
Tomorrow will be 1m 32s shorter.
Waxing Crescent, 11% of the Moon is Illuminated
Aug 28
Waxing Crescent
Sep 2
First Quarter
Sep 8
Full
Sep 15
Last Quarter
Sep 24
New

Yesterday's Extremes

Country Highs Country Lows

Community

WunderPhotos

Upload Photos

1,748,124 photos uploaded!

Nearby

Snow Depth

Not available.

Earthquake Activity

City Distance Mag. Time & Date
No recent earthquake activity has been reported nearby.
Minimum magnitude displayed is 2.5.

Coastal Water Temperatures

Place Temperature
No Stations Reporting

Nearby Weather Stations